createdAt,value
2018-04-30T00:01:02.779Z,18.15
2018-04-30T00:03:30.247Z,17.45
2018-04-30T00:05:57.757Z,16.30
2018-04-30T00:08:25.240Z,16.55
2018-04-30T00:10:52.720Z,14.82
2018-04-30T00:13:20.197Z,14.95
2018-04-30T00:15:47.716Z,16.00
2018-04-30T00:18:15.209Z,14.77
2018-04-30T00:20:43.449Z,15.88
2018-04-30T00:23:10.939Z,14.90
2018-04-30T00:25:38.400Z,15.32
2018-04-30T00:28:06.643Z,13.90
2018-04-30T00:30:34.141Z,14.93
2018-04-30T00:33:01.683Z,14.13
2018-04-30T00:35:29.362Z,13.60
2018-04-30T00:37:56.860Z,15.43
2018-04-30T00:40:24.360Z,14.85
2018-04-30T00:42:51.837Z,14.50
2018-04-30T00:45:19.329Z,13.70
2018-04-30T00:47:46.829Z,13.18
2018-04-30T00:50:14.374Z,14.00
2018-04-30T00:52:41.862Z,15.50
2018-04-30T00:55:10.113Z,16.33
2018-04-30T00:57:37.593Z,14.00
2018-04-30T01:00:05.944Z,16.60
2018-04-30T01:02:33.442Z,15.77
2018-04-30T01:05:00.910Z,14.90
2018-04-30T01:07:28.401Z,15.07
2018-04-30T01:09:55.877Z,14.43
2018-04-30T01:12:23.425Z,13.23
2018-04-30T01:14:50.885Z,14.45
2018-04-30T01:17:18.372Z,14.52
2018-04-30T01:19:45.870Z,12.85
2018-04-30T01:22:13.365Z,14.02
2018-04-30T01:24:40.836Z,14.80
2018-04-30T01:27:09.098Z,15.02
2018-04-30T01:29:36.705Z,14.82
2018-04-30T01:32:04.214Z,14.60
2018-04-30T01:34:31.677Z,13.23
2018-04-30T01:36:59.948Z,14.00
2018-04-30T01:39:27.504Z,13.95
2018-04-30T01:41:55.005Z,14.48
2018-04-30T01:44:22.478Z,13.30
2018-04-30T01:46:49.965Z,13.20
2018-04-30T01:49:17.516Z,14.60
2018-04-30T01:51:44.980Z,13.38
2018-04-30T01:54:12.462Z,13.70
2018-04-30T01:56:39.970Z,14.80
2018-04-30T01:59:07.441Z,14.60
2018-04-30T02:01:34.917Z,15.63
2018-04-30T02:04:02.373Z,14.90
2018-04-30T02:06:29.882Z,15.25
2018-04-30T02:08:57.349Z,16.77
2018-04-30T02:11:24.828Z,14.63
2018-04-30T02:13:52.304Z,15.15
2018-04-30T02:16:19.797Z,15.82
2018-04-30T02:18:47.260Z,17.67
2018-04-30T02:21:14.731Z,15.00
2018-04-30T02:23:42.216Z,15.65
2018-04-30T02:26:09.708Z,15.98
2018-04-30T02:28:37.940Z,16.20
2018-04-30T02:31:05.409Z,17.90
2018-04-30T02:33:32.978Z,16.45
2018-04-30T02:36:01.147Z,17.40
2018-04-30T02:38:28.622Z,17.33
2018-04-30T02:40:56.131Z,17.33
2018-04-30T02:43:23.598Z,17.20
2018-04-30T02:45:51.062Z,18.52
2018-04-30T02:48:18.527Z,17.98
2018-04-30T02:50:46.014Z,18.40
2018-04-30T02:53:13.500Z,17.00
2018-04-30T02:55:41.008Z,17.90
2018-04-30T02:58:08.481Z,18.62
2018-04-30T03:00:35.953Z,20.30
2018-04-30T03:03:04.211Z,16.92
2018-04-30T03:05:31.710Z,18.83
2018-04-30T03:07:59.188Z,18.12
2018-04-30T03:10:26.647Z,17.62
2018-04-30T03:12:54.142Z,16.98
2018-04-30T03:15:21.649Z,17.65
2018-04-30T03:17:49.143Z,17.25
2018-04-30T03:20:16.628Z,17.30
2018-04-30T03:22:44.093Z,18.20
2018-04-30T03:25:11.591Z,18.10
2018-04-30T03:27:39.081Z,17.05
2018-04-30T03:30:06.578Z,16.60
2018-04-30T03:32:34.063Z,17.40
2018-04-30T03:35:01.538Z,15.80
2018-04-30T03:37:29.012Z,17.55
2018-04-30T03:39:56.468Z,16.73
2018-04-30T03:42:23.957Z,16.73
2018-04-30T03:44:51.436Z,17.83
2018-04-30T03:47:18.935Z,16.90
2018-04-30T03:49:46.441Z,18.05
2018-04-30T03:52:13.886Z,17.67
2018-04-30T03:54:41.378Z,18.80
2018-04-30T03:57:08.851Z,17.05
2018-04-30T03:59:36.321Z,18.55
2018-04-30T04:02:15.621Z,18.35
2018-04-30T04:04:54.784Z,18.80
2018-04-30T04:07:22.244Z,17.70
2018-04-30T04:09:49.752Z,17.75
2018-04-30T04:12:17.225Z,17.12
2018-04-30T04:14:44.702Z,17.15
2018-04-30T04:17:12.172Z,18.80
2018-04-30T04:19:39.651Z,18.40
2018-04-30T04:22:07.893Z,17.85
2018-04-30T04:24:35.372Z,18.12
2018-04-30T04:27:02.848Z,17.95
2018-04-30T04:29:30.317Z,17.45
2018-04-30T04:31:57.845Z,17.77
2018-04-30T04:34:25.368Z,19.00
2018-04-30T04:36:52.840Z,19.15
2018-04-30T04:39:20.300Z,17.80
2018-04-30T04:41:47.919Z,17.35
2018-04-30T04:44:15.312Z,17.90
2018-04-30T04:46:42.775Z,19.08
2018-04-30T04:49:10.273Z,17.77
2018-04-30T04:51:37.798Z,18.60
2018-04-30T04:54:05.300Z,19.62
2018-04-30T04:56:32.817Z,18.05
2018-04-30T04:59:00.335Z,17.80
2018-04-30T05:01:27.932Z,20.40
2018-04-30T05:03:55.426Z,19.27
2018-04-30T05:06:22.939Z,18.35
2018-04-30T05:08:50.458Z,18.30
2018-04-30T05:11:17.952Z,19.98
2018-04-30T05:13:45.479Z,18.60
2018-04-30T05:16:13.017Z,19.45
2018-04-30T05:18:40.480Z,18.00
2018-04-30T05:21:07.959Z,20.12
2018-04-30T05:23:35.534Z,19.60
2018-04-30T05:26:03.019Z,18.12
2018-04-30T05:28:31.283Z,20.35
2018-04-30T05:30:58.805Z,20.08
2018-04-30T05:33:26.487Z,18.00
2018-04-30T05:35:54.020Z,18.27
2018-04-30T05:38:21.509Z,18.60
2018-04-30T05:40:49.100Z,18.48
2018-04-30T05:43:16.505Z,19.08
2018-04-30T05:45:44.026Z,18.17
2018-04-30T05:48:12.301Z,18.60
2018-04-30T05:50:40.572Z,17.55
2018-04-30T05:53:08.040Z,17.35
2018-04-30T05:55:35.510Z,17.90
2018-04-30T05:58:02.982Z,18.15
2018-04-30T06:00:30.539Z,18.62
2018-04-30T06:02:58.155Z,17.65
2018-04-30T06:05:25.645Z,16.15
2018-04-30T06:07:53.109Z,17.00
2018-04-30T06:10:20.638Z,16.75
2018-04-30T06:12:48.857Z,19.87
2018-04-30T06:15:16.414Z,17.60
2018-04-30T06:17:43.871Z,18.45
2018-04-30T06:20:11.340Z,16.50
2018-04-30T06:22:38.824Z,18.37
2018-04-30T06:25:06.273Z,17.25
2018-04-30T06:27:33.747Z,18.77
2018-04-30T06:30:01.244Z,16.65
2018-04-30T06:32:28.932Z,18.85
2018-04-30T06:34:56.401Z,19.65
2018-04-30T06:37:23.888Z,17.83
2018-04-30T06:39:51.587Z,21.62
2018-04-30T06:42:19.067Z,18.77
2018-04-30T06:44:46.564Z,19.37
2018-04-30T06:47:14.079Z,20.15
2018-04-30T06:49:42.496Z,20.50
2018-04-30T06:52:10.750Z,20.92
2018-04-30T06:54:38.216Z,20.33
2018-04-30T06:57:05.736Z,19.70
2018-04-30T06:59:33.232Z,19.98
2018-04-30T07:02:00.694Z,19.83
2018-04-30T07:04:28.224Z,16.90
2018-04-30T07:06:55.705Z,20.30
2018-04-30T07:09:24.046Z,20.20
2018-04-30T07:11:52.264Z,19.50
2018-04-30T07:14:19.809Z,19.05
2018-04-30T07:16:47.307Z,20.33
2018-04-30T07:19:14.910Z,19.15
2018-04-30T07:21:42.404Z,20.65
2018-04-30T07:24:09.958Z,20.05
2018-04-30T07:26:38.233Z,18.65
2018-04-30T07:29:06.477Z,17.90
2018-04-30T07:31:33.981Z,19.98
2018-04-30T07:34:01.456Z,19.37
2018-04-30T07:36:28.942Z,18.85
2018-04-30T07:38:56.497Z,19.62
2018-04-30T07:41:23.990Z,19.77
2018-04-30T07:43:51.469Z,18.75
2018-04-30T07:46:18.948Z,17.33
2018-04-30T07:48:46.434Z,18.83
2018-04-30T07:51:13.921Z,18.30
2018-04-30T07:53:41.426Z,18.93
2018-04-30T07:56:09.686Z,19.00
2018-04-30T07:58:37.181Z,17.83
2018-04-30T08:01:04.668Z,18.10
2018-04-30T08:03:32.148Z,20.17
2018-04-30T08:06:01.360Z,19.40
2018-04-30T08:08:28.870Z,18.62
2018-04-30T08:10:57.152Z,19.90
2018-04-30T08:13:24.628Z,20.53
2018-04-30T08:15:52.137Z,20.77
2018-04-30T08:18:19.639Z,20.23
2018-04-30T08:20:47.183Z,19.83
2018-04-30T08:23:14.689Z,18.23
2018-04-30T08:25:42.168Z,20.03
2018-04-30T08:28:09.652Z,19.93
2018-04-30T08:30:37.128Z,19.67
2018-04-30T08:33:04.613Z,19.60
2018-04-30T08:35:32.144Z,19.87
2018-04-30T08:38:00.415Z,19.17
2018-04-30T08:40:27.880Z,20.40
2018-04-30T08:42:55.347Z,19.87
2018-04-30T08:45:22.816Z,18.20
2018-04-30T08:47:50.318Z,19.40
2018-04-30T08:50:17.785Z,18.37
2018-04-30T08:53:00.036Z,19.70
2018-04-30T08:55:30.780Z,19.00
2018-04-30T08:58:02.536Z,20.40
2018-04-30T09:00:31.468Z,19.60
2018-04-30T09:03:06.470Z,19.57
2018-04-30T09:08:33.163Z,21.30
2018-04-30T09:11:00.644Z,21.90
2018-04-30T09:57:11.416Z,21.70
2018-04-30T09:59:39.649Z,22.70
2018-04-30T10:02:07.222Z,23.00
2018-04-30T10:04:34.706Z,24.57
2018-04-30T10:07:02.197Z,23.80
2018-04-30T10:09:30.026Z,23.47
2018-04-30T10:11:57.521Z,23.70
2018-04-30T10:14:24.993Z,20.90
2018-04-30T10:16:52.458Z,22.03
2018-04-30T10:19:19.965Z,22.47
2018-04-30T10:21:47.429Z,24.60
2018-04-30T10:24:14.921Z,22.97
2018-04-30T10:26:42.389Z,24.03
2018-04-30T10:29:09.920Z,23.20
2018-04-30T10:31:38.685Z,23.40
2018-04-30T10:34:06.963Z,23.83
2018-04-30T10:36:34.681Z,26.27
2018-04-30T10:39:02.318Z,26.80
2018-04-30T10:41:29.788Z,26.50
2018-04-30T10:43:57.336Z,24.90
2018-04-30T10:46:24.905Z,27.00
2018-04-30T10:48:52.385Z,25.50
2018-04-30T10:51:19.997Z,24.80
2018-04-30T10:53:47.904Z,23.50
2018-04-30T10:56:15.480Z,22.50
2018-04-30T10:58:42.961Z,22.93
2018-04-30T11:01:10.422Z,23.77
2018-04-30T11:03:37.968Z,25.27
2018-04-30T11:06:06.306Z,23.38
2018-04-30T11:08:34.626Z,24.92
2018-04-30T11:11:02.126Z,24.37
2018-04-30T11:13:29.612Z,24.63
2018-04-30T11:15:57.175Z,25.27
2018-04-30T11:18:24.866Z,28.20
2018-04-30T11:20:52.397Z,25.55
2018-04-30T11:23:21.481Z,26.25
2018-04-30T11:25:48.965Z,24.37
2018-04-30T11:28:16.888Z,24.87
2018-04-30T11:30:44.664Z,25.07
2018-04-30T11:33:12.172Z,24.87
2018-04-30T11:35:39.680Z,23.97
2018-04-30T11:38:07.589Z,25.33
2018-04-30T11:40:35.692Z,25.23
2018-04-30T11:43:03.168Z,22.15
2018-04-30T11:45:30.653Z,21.37
2018-04-30T11:47:58.136Z,19.13
2018-04-30T11:50:25.625Z,24.02
2018-04-30T11:52:53.106Z,25.85
2018-04-30T11:55:20.598Z,28.35
2018-04-30T11:57:48.098Z,25.60
2018-04-30T12:00:15.632Z,27.83
2018-04-30T12:02:43.178Z,30.37
2018-04-30T12:05:10.666Z,29.52
2018-04-30T12:07:38.180Z,31.48
2018-04-30T12:10:06.449Z,32.80
2018-04-30T12:12:42.445Z,30.62
2018-04-30T12:15:14.038Z,30.77
2018-04-30T12:17:43.550Z,27.95
2018-04-30T12:20:11.046Z,28.10
2018-04-30T12:22:40.812Z,30.50
2018-04-30T12:25:08.300Z,29.92
2018-04-30T12:27:39.877Z,29.15
2018-04-30T12:30:07.383Z,27.62
2018-04-30T12:32:35.247Z,29.52
2018-04-30T12:35:03.477Z,28.50
2018-04-30T12:37:31.027Z,28.45
2018-04-30T12:39:58.626Z,30.62
2018-04-30T12:42:26.257Z,28.92
2018-04-30T12:44:53.775Z,28.25
2018-04-30T12:47:22.044Z,26.40
2018-04-30T12:49:49.555Z,24.83
2018-04-30T12:52:17.010Z,26.10
2018-04-30T12:54:45.509Z,21.80
2018-04-30T12:57:13.031Z,19.55
2018-04-30T12:59:40.521Z,19.50
2018-04-30T13:02:08.789Z,19.70
2018-04-30T13:04:36.268Z,19.30
2018-04-30T13:07:03.761Z,14.13
2018-04-30T13:09:33.144Z,11.35
2018-04-30T13:12:00.654Z,10.40
2018-04-30T13:14:47.068Z,9.27
2018-04-30T13:17:14.638Z,8.32
2018-04-30T13:19:44.088Z,10.30
2018-04-30T13:22:12.990Z,9.85
2018-04-30T13:24:40.751Z,10.32
2018-04-30T13:27:09.047Z,8.63
2018-04-30T13:29:41.386Z,8.50
2018-04-30T13:32:13.741Z,8.60
2018-04-30T13:34:41.434Z,8.82
2018-04-30T13:37:09.884Z,10.20
2018-04-30T13:39:37.890Z,10.82
2018-04-30T13:42:05.522Z,10.20
2018-04-30T13:44:33.042Z,10.63
2018-04-30T13:47:00.603Z,9.10
2018-04-30T13:49:28.200Z,9.77
2018-04-30T13:51:55.746Z,9.90
2018-04-30T13:54:23.224Z,8.85
2018-04-30T13:56:50.734Z,8.20
2018-04-30T13:59:18.261Z,8.93
2018-04-30T14:01:46.592Z,8.35
2018-04-30T14:04:14.025Z,8.43
2018-04-30T14:09:33.239Z,7.28
2018-04-30T14:12:00.716Z,8.50
2018-04-30T14:14:28.957Z,7.50
2018-04-30T14:16:56.691Z,7.25
2018-04-30T14:19:24.176Z,6.05
2018-04-30T14:21:51.741Z,6.18
2018-04-30T14:24:19.225Z,5.72
2018-04-30T14:26:47.512Z,5.28
2018-04-30T14:29:15.752Z,5.70
2018-04-30T14:31:43.283Z,5.35
2018-04-30T14:34:10.772Z,5.68
2018-04-30T14:36:38.329Z,3.40
2018-04-30T14:39:05.825Z,3.55
2018-04-30T14:41:34.134Z,3.97
2018-04-30T14:44:01.696Z,4.10
2018-04-30T14:46:29.177Z,2.80
2018-04-30T14:48:56.648Z,2.53
2018-04-30T14:51:24.204Z,2.40
2018-04-30T14:53:51.636Z,2.60
2018-04-30T14:56:19.129Z,2.45
2018-04-30T14:58:46.612Z,2.00
2018-04-30T15:01:14.173Z,1.90
2018-04-30T15:03:41.668Z,2.15
2018-04-30T15:06:09.150Z,2.03
2018-04-30T15:08:36.637Z,1.52
2018-04-30T15:11:04.908Z,1.85
2018-04-30T15:13:32.487Z,2.25
2018-04-30T15:15:59.992Z,1.60
2018-04-30T15:18:27.542Z,2.00
2018-04-30T15:20:55.144Z,1.75
2018-04-30T15:23:22.663Z,1.80
2018-04-30T15:25:50.151Z,1.70
2018-04-30T15:28:17.620Z,1.52
2018-04-30T15:30:45.096Z,1.65
2018-04-30T15:33:12.579Z,1.90
2018-04-30T15:35:40.159Z,1.90
2018-04-30T15:38:07.600Z,1.70
2018-04-30T15:40:38.197Z,2.10
2018-04-30T15:43:05.687Z,1.42
2018-04-30T15:45:33.196Z,1.90
2018-04-30T15:48:00.719Z,1.50
2018-04-30T15:50:28.416Z,1.30
2018-04-30T15:52:55.911Z,1.70
2018-04-30T15:55:23.397Z,1.27
2018-04-30T15:57:50.953Z,2.30
2018-04-30T16:00:18.436Z,1.80
2018-04-30T16:02:46.781Z,1.95
2018-04-30T16:05:14.272Z,2.12
2018-04-30T16:07:43.784Z,1.95
2018-04-30T16:10:11.409Z,1.65
2018-04-30T16:12:38.938Z,2.22
2018-04-30T16:15:06.455Z,1.40
2018-04-30T16:17:35.117Z,1.80
2018-04-30T16:20:02.733Z,1.87
2018-04-30T16:22:30.492Z,1.80
2018-04-30T16:24:57.994Z,1.75
2018-04-30T16:27:25.655Z,1.80
2018-04-30T16:29:53.140Z,1.23
2018-04-30T16:32:20.643Z,1.30
2018-04-30T16:34:48.171Z,1.30
2018-04-30T16:37:16.111Z,0.98
2018-04-30T16:39:43.657Z,1.00
2018-04-30T16:42:11.141Z,1.40
2018-04-30T16:44:39.589Z,1.23
2018-04-30T16:47:07.302Z,1.33
2018-04-30T16:49:34.957Z,1.45
2018-04-30T16:52:02.596Z,1.75
2018-04-30T16:54:30.044Z,1.50
2018-04-30T16:56:57.552Z,1.20
2018-04-30T16:59:25.046Z,1.05
2018-04-30T17:01:52.524Z,1.50
2018-04-30T17:04:20.011Z,1.30
2018-04-30T17:06:47.535Z,1.20
2018-04-30T17:09:15.028Z,1.20
2018-04-30T17:11:43.563Z,1.48
2018-04-30T17:14:11.169Z,1.10
2018-04-30T17:16:38.684Z,1.62
2018-04-30T17:19:06.167Z,1.02
2018-04-30T17:21:35.553Z,1.35
2018-04-30T17:24:03.157Z,1.67
2018-04-30T17:26:30.629Z,1.15
2018-04-30T17:28:58.095Z,1.02
2018-04-30T17:31:25.617Z,1.12
2018-04-30T17:33:53.113Z,1.15
2018-04-30T17:36:20.786Z,1.25
2018-04-30T17:38:48.286Z,1.60
2018-04-30T17:41:15.812Z,1.40
2018-04-30T17:43:43.290Z,1.23
2018-04-30T17:46:11.741Z,1.15
2018-04-30T17:48:39.390Z,1.70
2018-04-30T17:51:07.687Z,1.33
2018-04-30T17:53:35.188Z,1.80
2018-04-30T17:56:02.680Z,1.58
2018-04-30T17:58:30.162Z,1.35
2018-04-30T18:00:57.648Z,1.15
2018-04-30T18:03:25.212Z,1.15
2018-04-30T18:05:53.652Z,1.08
2018-04-30T18:08:21.116Z,1.40
2018-04-30T18:10:48.595Z,1.15
2018-04-30T18:13:18.800Z,1.20
2018-04-30T18:15:46.252Z,1.48
2018-04-30T18:18:13.729Z,1.50
2018-04-30T18:20:41.436Z,1.23
2018-04-30T18:23:08.933Z,1.42
2018-04-30T18:25:36.412Z,1.50
2018-04-30T18:28:03.879Z,1.35
2018-04-30T18:30:31.351Z,1.52
2018-04-30T18:32:58.852Z,1.45
2018-04-30T18:35:26.334Z,1.30
2018-04-30T18:37:54.917Z,1.33
2018-04-30T18:40:22.551Z,1.70
2018-04-30T18:42:50.139Z,1.62
2018-04-30T18:45:17.651Z,1.65
2018-04-30T18:47:45.120Z,1.35
2018-04-30T18:50:12.635Z,1.12
2018-04-30T18:52:40.092Z,1.20
2018-04-30T18:55:07.807Z,1.27
2018-04-30T18:57:35.633Z,1.60
2018-04-30T19:00:03.352Z,1.85
2018-04-30T19:02:30.855Z,1.05
2018-04-30T19:04:58.546Z,1.77
2018-04-30T19:07:27.287Z,1.48
2018-04-30T19:09:59.211Z,1.60
2018-04-30T19:12:32.268Z,1.30
2018-04-30T19:15:03.888Z,2.40
2018-04-30T19:17:31.658Z,1.70
2018-04-30T19:20:00.705Z,1.23
2018-04-30T19:22:33.355Z,1.50
2018-04-30T19:25:01.733Z,1.83
2018-04-30T19:27:31.610Z,1.70
2018-04-30T19:30:00.257Z,1.70
2018-04-30T19:32:28.869Z,1.95
2018-04-30T19:34:57.786Z,1.40
2018-04-30T19:37:25.894Z,1.40
2018-04-30T19:39:53.775Z,1.55
2018-04-30T19:42:21.674Z,1.90
2018-04-30T19:44:49.312Z,1.45
2018-04-30T19:47:16.842Z,1.42
2018-04-30T19:49:45.439Z,1.40
2018-04-30T19:52:12.928Z,2.70
2018-04-30T19:54:40.465Z,1.55
2018-04-30T19:57:07.948Z,1.10
2018-04-30T19:59:35.456Z,1.10
2018-04-30T20:02:02.938Z,1.17
2018-04-30T20:04:30.877Z,0.95
2018-04-30T20:06:58.347Z,1.50
2018-04-30T20:09:25.831Z,1.60
2018-04-30T20:11:53.333Z,1.40
2018-04-30T20:14:20.971Z,1.58
2018-04-30T20:16:49.213Z,1.70
2018-04-30T20:19:16.709Z,1.27
2018-04-30T20:21:44.258Z,1.80
2018-04-30T20:24:12.527Z,1.65
2018-04-30T20:26:40.026Z,1.40
2018-04-30T20:29:07.561Z,1.77
2018-04-30T20:31:35.084Z,1.35
2018-04-30T20:34:02.583Z,1.67
2018-04-30T20:36:30.101Z,1.58
2018-04-30T20:38:57.597Z,2.00
2018-04-30T20:41:25.100Z,2.08
2018-04-30T20:43:52.638Z,1.77
2018-04-30T20:46:20.229Z,1.73
2018-04-30T20:48:47.694Z,2.10
2018-04-30T20:51:15.173Z,2.20
2018-04-30T20:53:42.628Z,1.83
2018-04-30T20:56:10.212Z,1.85
2018-04-30T20:58:37.668Z,2.50
2018-04-30T21:01:05.202Z,2.50
2018-04-30T21:03:33.476Z,2.30
2018-04-30T21:06:00.955Z,2.17
2018-04-30T21:08:28.444Z,2.45
2018-04-30T21:10:55.935Z,2.75
2018-04-30T21:13:23.407Z,2.42
2018-04-30T21:15:50.979Z,2.70
2018-04-30T21:18:20.479Z,2.67
2018-04-30T21:20:48.712Z,3.45
2018-04-30T21:23:16.204Z,2.35
2018-04-30T21:25:43.675Z,3.15
2018-04-30T21:28:12.000Z,2.62
2018-04-30T21:30:39.498Z,3.20
2018-04-30T21:33:10.251Z,3.37
2018-04-30T21:35:40.733Z,2.87
2018-04-30T21:38:08.180Z,3.53
2018-04-30T21:40:35.640Z,3.50
2018-04-30T21:43:03.130Z,3.28
2018-04-30T21:45:30.633Z,3.70
2018-04-30T21:47:58.113Z,3.50
2018-04-30T21:50:25.603Z,2.90
2018-04-30T21:52:53.885Z,2.62
2018-04-30T21:55:21.391Z,2.50
2018-04-30T21:57:48.876Z,2.00
2018-04-30T22:00:16.355Z,2.17
2018-04-30T22:02:44.587Z,2.00
2018-04-30T22:05:16.631Z,1.90
2018-04-30T22:07:44.108Z,2.15
2018-04-30T22:10:11.611Z,1.87
2018-04-30T22:12:39.865Z,2.08
2018-04-30T22:15:07.387Z,2.30
2018-04-30T22:17:34.923Z,1.60
2018-04-30T22:20:02.382Z,1.52
2018-04-30T22:22:31.560Z,1.83
2018-04-30T22:24:59.106Z,1.70
2018-04-30T22:27:26.608Z,1.70
2018-04-30T22:29:54.080Z,1.45
2018-04-30T22:32:21.565Z,1.45
2018-04-30T22:34:49.048Z,1.25
2018-04-30T22:37:16.558Z,1.30
2018-04-30T22:39:44.056Z,1.60
2018-04-30T22:42:11.794Z,1.23
2018-04-30T22:44:41.961Z,1.48
2018-04-30T22:47:19.830Z,1.55
2018-04-30T22:49:47.596Z,1.30
2018-04-30T22:52:15.082Z,2.03
2018-04-30T22:54:42.577Z,1.52
2018-04-30T22:57:10.053Z,1.67
2018-04-30T22:59:37.677Z,2.20
2018-04-30T23:02:05.169Z,1.90
2018-04-30T23:04:32.654Z,2.30
2018-04-30T23:07:00.918Z,4.07
2018-04-30T23:09:28.409Z,5.43
2018-04-30T23:11:55.894Z,6.57
2018-04-30T23:14:23.487Z,6.45
2018-04-30T23:16:51.188Z,4.95
2018-04-30T23:19:18.681Z,3.50
2018-04-30T23:21:46.295Z,3.22
2018-04-30T23:24:13.790Z,2.35
2018-04-30T23:26:41.268Z,2.00
2018-04-30T23:29:08.812Z,2.47
2018-04-30T23:31:36.365Z,1.77
2018-04-30T23:34:03.901Z,1.50
2018-04-30T23:36:31.497Z,1.33
2018-04-30T23:38:59.001Z,1.55
2018-04-30T23:41:27.287Z,1.50
2018-04-30T23:43:54.763Z,1.55
2018-04-30T23:46:22.286Z,1.12
2018-04-30T23:48:50.595Z,1.98
2018-04-30T23:51:18.107Z,1.30
2018-04-30T23:53:45.602Z,1.10
2018-04-30T23:56:13.142Z,1.08
2018-04-30T23:58:41.384Z,1.25
